Time;durP1;ratioP1;P1;durP2;ratioP2;P2;SDS_P1;SDS_P2;PMS_P1;PMS_P2;Temp;Humidity;BMP_temperature;BMP_pressure;BME280_temperature;BME280_humidity;BME280_pressure;Samples;Min_cycle;Max_cycle;Signal;HPM_P1;HPM_P2
2024/04/13 00:02:18;;;;;;;19.13;10.10;;;14.30;99.90;;;;;;5381013;26;19988;-69
2024/04/13 00:04:43;;;;;;;19.90;10.63;;;14.20;99.90;;;;;;5381363;26;20000;-69
2024/04/13 00:07:09;;;;;;;20.27;10.63;;;14.20;99.90;;;;;;5380982;26;20007;-70
2024/04/13 00:09:35;;;;;;;22.73;10.60;;;14.30;99.90;;;;;;5381289;26;19989;-70
2024/04/13 00:12:00;;;;;;;17.40;10.40;;;14.30;99.90;;;;;;5380960;26;20073;-71
2024/04/13 00:14:26;;;;;;;19.20;10.23;;;14.20;99.90;;;;;;5381225;26;20004;-70
2024/04/13 00:16:51;;;;;;;22.02;10.55;;;14.10;99.90;;;;;;5380848;26;19988;-70
2024/04/13 00:19:17;;;;;;;21.77;10.32;;;14.10;99.90;;;;;;5380709;26;19992;-70
2024/04/13 00:21:42;;;;;;;18.38;9.85;;;14.20;99.90;;;;;;5381105;26;20004;-70
2024/04/13 00:24:11;;;;;;;22.73;10.38;;;14.20;99.90;;;;;;5381729;26;19992;-70
2024/04/13 00:26:37;;;;;;;14.38;9.82;;;14.10;99.90;;;;;;5384277;26;20029;-69
2024/04/13 00:29:05;;;;;;;14.30;9.00;;;14.00;99.90;;;;;;5384461;26;19993;-69
2024/04/13 00:31:31;;;;;;;15.13;10.57;;;13.90;99.90;;;;;;5384430;26;19988;-69
2024/04/13 00:33:58;;;;;;;15.00;9.93;;;13.90;99.90;;;;;;5384140;26;19992;-70
2024/04/13 00:36:24;;;;;;;12.00;8.80;;;13.80;99.90;;;;;;5384063;26;20034;-70
2024/04/13 00:38:50;;;;;;;15.48;10.20;;;13.70;99.90;;;;;;5384624;26;19992;-70
2024/04/13 00:41:16;;;;;;;17.45;10.80;;;13.70;99.90;;;;;;5383957;26;20462;-70
2024/04/13 00:43:41;;;;;;;13.82;8.95;;;13.60;99.90;;;;;;5384299;26;19992;-70
2024/04/13 00:46:16;;;;;;;16.50;11.20;;;13.60;99.90;;;;;;5384315;26;20446;-69
2024/04/13 00:48:42;;;;;;;16.85;10.65;;;13.50;99.90;;;;;;5383957;26;20000;-69
2024/04/13 00:51:12;;;;;;;15.73;10.68;;;13.50;99.90;;;;;;5383822;26;19988;-70
2024/04/13 00:53:39;;;;;;;15.85;11.43;;;13.40;99.90;;;;;;5384014;26;20024;-69
2024/04/13 00:56:07;;;;;;;18.95;12.27;;;13.40;99.90;;;;;;5383986;26;19988;-70
2024/04/13 00:58:35;;;;;;;17.90;12.77;;;13.30;99.90;;;;;;5384157;26;20034;-69
2024/04/13 01:01:02;;;;;;;18.67;11.88;;;13.30;99.90;;;;;;5383856;26;20020;-69
2024/04/13 01:03:29;;;;;;;18.55;12.02;;;13.20;99.90;;;;;;5383608;26;20008;-70
2024/04/13 01:05:55;;;;;;;19.08;13.32;;;13.20;99.90;;;;;;5384098;26;20004;-70
2024/04/13 01:08:21;;;;;;;18.77;12.88;;;13.10;99.90;;;;;;5383688;26;19992;-70
2024/04/13 01:10:47;;;;;;;25.33;13.00;;;13.10;99.90;;;;;;5384011;26;19992;-70
2024/04/13 01:13:14;;;;;;;19.13;12.25;;;13.10;99.90;;;;;;5383887;26;19992;-70
2024/04/13 01:15:39;;;;;;;19.02;11.48;;;13.10;99.90;;;;;;5383649;26;20385;-70
2024/04/13 01:18:10;;;;;;;19.35;12.18;;;13.00;99.90;;;;;;5383857;26;20000;-70
2024/04/13 01:20:37;;;;;;;15.45;10.85;;;13.00;99.90;;;;;;5383855;26;20065;-70
2024/04/13 01:23:05;;;;;;;21.25;12.65;;;13.00;99.90;;;;;;5383974;26;20016;-69
2024/04/13 01:25:31;;;;;;;18.63;12.30;;;12.90;99.90;;;;;;5383804;26;20067;-69
2024/04/13 01:27:57;;;;;;;24.67;13.70;;;12.90;99.90;;;;;;5383764;26;20000;-70
2024/04/13 01:30:23;;;;;;;23.58;14.85;;;13.00;99.90;;;;;;5383903;26;20083;-69
2024/04/13 01:32:49;;;;;;;27.55;14.93;;;13.00;99.90;;;;;;5383906;26;20437;-69
2024/04/13 01:35:15;;;;;;;18.77;13.13;;;13.00;99.90;;;;;;5383636;26;19999;-70
2024/04/13 01:37:41;;;;;;;24.38;15.75;;;13.00;99.90;;;;;;5383553;26;20365;-70
2024/04/13 01:40:09;;;;;;;23.33;14.90;;;13.00;99.90;;;;;;5383608;26;19999;-70
2024/04/13 01:42:35;;;;;;;23.23;13.70;;;13.00;99.90;;;;;;5383738;26;20020;-70
2024/04/13 01:45:02;;;;;;;22.73;15.07;;;13.00;99.90;;;;;;5383682;26;19992;-70
2024/04/13 01:47:27;;;;;;;26.80;14.13;;;13.00;99.90;;;;;;5383556;26;19996;-70
2024/04/13 01:49:53;;;;;;;22.40;14.13;;;12.90;99.90;;;;;;5383957;26;19992;-69
2024/04/13 01:52:20;;;;;;;22.00;14.50;;;12.90;99.90;;;;;;5383786;26;19988;-70
2024/04/13 01:54:46;;;;;;;22.15;13.32;;;12.90;99.90;;;;;;5383630;26;19989;-69
2024/04/13 01:57:13;;;;;;;23.27;14.57;;;12.90;99.90;;;;;;5383438;26;19992;-69
2024/04/13 01:59:41;;;;;;;22.98;13.40;;;12.90;99.90;;;;;;5383552;26;20003;-69
2024/04/13 02:02:07;;;;;;;22.38;13.13;;;13.00;99.90;;;;;;5383433;26;19993;-69
2024/04/13 02:04:32;;;;;;;22.10;13.32;;;12.90;99.90;;;;;;5383366;26;20024;-70
2024/04/13 02:06:58;;;;;;;19.10;12.25;;;12.90;99.90;;;;;;5383181;26;19992;-69
2024/04/13 02:09:23;;;;;;;24.83;14.52;;;12.90;99.90;;;;;;5383318;26;20015;-70
2024/04/13 02:11:49;;;;;;;21.95;13.07;;;12.80;99.90;;;;;;5382834;26;19992;-70
2024/04/13 02:14:14;;;;;;;17.58;11.98;;;12.80;99.90;;;;;;5383331;26;20070;-69
2024/04/13 02:16:40;;;;;;;20.05;13.00;;;12.80;99.90;;;;;;5382603;26;20024;-69
2024/04/13 02:19:06;;;;;;;19.80;12.80;;;12.80;99.90;;;;;;5383162;26;19992;-69
2024/04/13 02:21:31;;;;;;;20.30;13.05;;;12.80;99.90;;;;;;5383129;26;20065;-69
2024/04/13 02:23:57;;;;;;;19.38;13.57;;;12.70;99.90;;;;;;5383090;26;20024;-69
2024/04/13 02:26:22;;;;;;;17.98;12.55;;;12.70;99.90;;;;;;5383336;26;19992;-70
2024/04/13 02:28:48;;;;;;;18.88;12.95;;;12.70;99.90;;;;;;5382920;26;20527;-69
2024/04/13 02:31:14;;;;;;;22.35;13.82;;;12.70;99.90;;;;;;5382808;26;19992;-69
2024/04/13 02:33:39;;;;;;;18.25;13.23;;;12.70;99.90;;;;;;5382853;26;19988;-69
2024/04/13 02:36:06;;;;;;;25.15;13.57;;;12.70;99.90;;;;;;5382889;26;19992;-70
2024/04/13 02:38:32;;;;;;;26.10;13.88;;;12.70;99.90;;;;;;5383035;26;19988;-70
2024/04/13 02:40:59;;;;;;;25.77;15.73;;;12.60;99.90;;;;;;5382696;26;20003;-69
2024/04/13 02:43:30;;;;;;;26.20;15.48;;;12.70;99.90;;;;;;5382856;26;20003;-70
2024/04/13 02:46:07;;;;;;;24.13;15.35;;;12.80;99.90;;;;;;5383145;26;20004;-70
2024/04/13 02:48:32;;;;;;;25.05;15.38;;;12.80;99.90;;;;;;5381920;26;20023;-69
2024/04/13 02:50:59;;;;;;;20.63;14.32;;;12.80;99.90;;;;;;5382701;26;19988;-69
2024/04/13 02:53:24;;;;;;;20.52;13.65;;;12.80;99.90;;;;;;5382861;26;19999;-69
2024/04/13 02:55:50;;;;;;;20.95;13.18;;;12.80;99.90;;;;;;5382570;26;20008;-69
2024/04/13 02:58:16;;;;;;;18.73;12.52;;;12.80;99.90;;;;;;5382565;26;20012;-69
2024/04/13 03:00:51;;;;;;;17.58;12.23;;;12.80;99.90;;;;;;5382801;26;19992;-69
2024/04/13 03:03:17;;;;;;;20.65;12.98;;;12.70;99.90;;;;;;5382554;26;20326;-69
2024/04/13 03:05:42;;;;;;;23.63;13.20;;;12.70;99.90;;;;;;5382150;26;20003;-69
2024/04/13 03:08:09;;;;;;;25.00;13.57;;;12.70;99.90;;;;;;5382040;26;19997;-69
2024/04/13 03:10:35;;;;;;;26.83;15.20;;;12.70;99.90;;;;;;5382034;26;19992;-69
2024/04/13 03:13:00;;;;;;;21.40;13.73;;;12.60;99.90;;;;;;5381950;26;19989;-70
2024/04/13 03:15:26;;;;;;;27.20;15.07;;;12.60;99.90;;;;;;5381764;26;20065;-69
2024/04/13 03:17:51;;;;;;;26.42;16.50;;;12.50;99.90;;;;;;5382052;26;19996;-69
2024/04/13 03:20:17;;;;;;;28.90;16.75;;;12.50;99.90;;;;;;5382211;26;20010;-69
2024/04/13 03:22:42;;;;;;;29.42;15.68;;;12.60;99.90;;;;;;5382135;26;19992;-70
2024/04/13 03:25:09;;;;;;;25.77;15.73;;;12.60;99.90;;;;;;5382163;26;20441;-69
2024/04/13 03:27:35;;;;;;;20.98;13.85;;;12.60;99.90;;;;;;5382291;26;19992;-69
2024/04/13 03:30:01;;;;;;;22.05;15.95;;;12.50;99.90;;;;;;5381823;26;19996;-70
2024/04/13 03:32:26;;;;;;;26.20;15.23;;;12.50;99.90;;;;;;5382098;26;20061;-69
2024/04/13 03:34:52;;;;;;;28.95;16.05;;;12.60;99.90;;;;;;5381897;26;20003;-69
2024/04/13 03:37:18;;;;;;;26.00;16.02;;;12.70;99.90;;;;;;5381876;26;19988;-69
2024/04/13 03:39:43;;;;;;;25.88;15.35;;;12.70;99.90;;;;;;5381794;26;20042;-69
2024/04/13 03:42:09;;;;;;;24.83;13.48;;;12.70;99.90;;;;;;5381970;26;20060;-70
2024/04/13 03:44:34;;;;;;;20.80;13.40;;;12.60;99.90;;;;;;5381695;26;19996;-69
2024/04/13 03:47:00;;;;;;;20.38;13.35;;;12.50;99.90;;;;;;5382080;26;20069;-69
2024/04/13 03:49:26;;;;;;;18.20;12.13;;;12.40;99.90;;;;;;5381964;26;19996;-70
2024/04/13 03:51:51;;;;;;;17.80;11.73;;;12.40;99.90;;;;;;5381419;26;19993;-69
2024/04/13 03:54:17;;;;;;;19.05;11.65;;;12.30;99.90;;;;;;5381832;26;20071;-69
2024/04/13 03:56:42;;;;;;;22.00;13.75;;;12.20;99.90;;;;;;5381377;26;19992;-69
2024/04/13 03:59:08;;;;;;;24.75;14.98;;;12.20;99.90;;;;;;5382347;26;19992;-70
2024/04/13 04:01:34;;;;;;;21.33;13.20;;;12.20;99.90;;;;;;5384966;26;19988;-69
2024/04/13 04:04:00;;;;;;;21.70;13.45;;;12.20;99.90;;;;;;5385147;26;19988;-69
2024/04/13 04:06:26;;;;;;;22.58;13.60;;;12.10;99.90;;;;;;5385157;26;19993;-69
2024/04/13 04:08:51;;;;;;;20.85;13.25;;;12.10;99.90;;;;;;5384780;26;20003;-69
2024/04/13 04:11:17;;;;;;;22.85;13.88;;;12.10;99.90;;;;;;5385071;26;19996;-69
2024/04/13 04:13:43;;;;;;;23.25;14.80;;;12.00;99.90;;;;;;5384825;26;20441;-69
2024/04/13 04:16:08;;;;;;;23.38;14.32;;;12.00;99.90;;;;;;5384609;26;20001;-69
2024/04/13 04:18:34;;;;;;;24.05;15.05;;;12.00;99.90;;;;;;5384695;26;20008;-70
2024/04/13 04:20:59;;;;;;;24.17;15.00;;;12.00;99.90;;;;;;5384669;26;19992;-69
2024/04/13 04:23:25;;;;;;;21.88;15.18;;;12.20;99.90;;;;;;5384623;26;20007;-69
2024/04/13 04:25:51;;;;;;;25.55;15.35;;;12.10;99.90;;;;;;5384249;26;20074;-69
2024/04/13 04:28:16;;;;;;;31.63;16.33;;;12.10;99.90;;;;;;5384218;26;20454;-69
2024/04/13 04:30:45;;;;;;;23.77;14.85;;;12.10;99.90;;;;;;5384341;26;19996;-69
2024/04/13 04:33:12;;;;;;;26.13;15.38;;;12.20;99.90;;;;;;5384576;26;20022;-69
2024/04/13 04:35:38;;;;;;;35.30;15.73;;;12.20;99.90;;;;;;5384244;26;20350;-69
2024/04/13 04:38:03;;;;;;;26.55;16.05;;;12.20;99.90;;;;;;5384315;26;19988;-69
2024/04/13 04:40:29;;;;;;;31.42;16.42;;;12.30;99.90;;;;;;5384043;26;20003;-70
2024/04/13 04:42:55;;;;;;;31.27;16.70;;;12.30;99.90;;;;;;5384172;26;19992;-69
2024/04/13 04:45:20;;;;;;;30.55;17.67;;;12.40;99.90;;;;;;5384054;26;20009;-70
2024/04/13 04:47:47;;;;;;;29.35;17.08;;;12.60;99.90;;;;;;5384174;26;19993;-69
2024/04/13 04:50:12;;;;;;;27.40;17.40;;;12.60;99.90;;;;;;5384081;26;20354;-70
2024/04/13 04:52:38;;;;;;;27.75;16.65;;;12.70;99.90;;;;;;5384111;26;20002;-69
2024/04/13 04:55:05;;;;;;;27.02;15.90;;;12.70;99.90;;;;;;5384281;26;20065;-70
2024/04/13 04:57:30;;;;;;;28.67;17.08;;;12.70;99.90;;;;;;5383676;26;20003;-69
2024/04/13 04:59:56;;;;;;;24.42;15.52;;;12.70;99.90;;;;;;5384116;26;20008;-69
2024/04/13 05:02:22;;;;;;;31.13;16.23;;;12.70;99.90;;;;;;5384229;26;19992;-70
2024/04/13 05:04:47;;;;;;;24.50;15.65;;;12.80;99.90;;;;;;5383795;26;20004;-69
2024/04/13 05:07:13;;;;;;;25.05;16.48;;;12.90;99.90;;;;;;5384066;26;20004;-70
2024/04/13 05:09:38;;;;;;;28.38;15.25;;;12.90;99.90;;;;;;5383714;26;20068;-69
2024/04/13 05:12:04;;;;;;;26.08;16.17;;;13.00;99.90;;;;;;5383644;26;19996;-69
2024/04/13 05:14:29;;;;;;;22.42;13.90;;;13.00;99.90;;;;;;5383954;26;20322;-69
2024/04/13 05:16:55;;;;;;;25.05;13.98;;;13.00;99.90;;;;;;5383158;26;19988;-69
2024/04/13 05:19:20;;;;;;;26.02;14.68;;;13.10;99.90;;;;;;5384090;26;19992;-70
2024/04/13 05:21:46;;;;;;;19.02;12.95;;;13.20;99.90;;;;;;5383707;26;20000;-69
2024/04/13 05:24:11;;;;;;;26.25;14.02;;;13.30;99.90;;;;;;5383671;26;19988;-69
2024/04/13 05:26:37;;;;;;;22.67;12.98;;;13.40;99.90;;;;;;5383610;26;20004;-70
2024/04/13 05:29:03;;;;;;;24.02;12.32;;;13.50;99.90;;;;;;5383639;26;20000;-70
2024/04/13 05:31:29;;;;;;;19.25;12.10;;;13.60;99.90;;;;;;5383919;26;19990;-69
2024/04/13 05:33:54;;;;;;;17.85;12.13;;;13.70;99.90;;;;;;5383383;26;19996;-69
2024/04/13 05:36:21;;;;;;;20.90;12.00;;;13.90;99.90;;;;;;5383341;26;20342;-69
2024/04/13 05:38:47;;;;;;;21.38;12.98;;;14.00;99.90;;;;;;5383434;26;20008;-69
2024/04/13 05:41:12;;;;;;;20.27;11.65;;;14.10;99.90;;;;;;5383320;26;19989;-69
2024/04/13 05:43:38;;;;;;;15.45;10.65;;;14.30;99.90;;;;;;5383415;26;20332;-70
2024/04/13 05:46:03;;;;;;;20.60;12.48;;;14.50;99.90;;;;;;5383494;26;20442;-70
2024/04/13 05:48:29;;;;;;;18.20;11.52;;;14.80;99.90;;;;;;5383434;26;20000;-69
2024/04/13 05:50:56;;;;;;;20.10;11.13;;;15.00;99.90;;;;;;5383050;26;20004;-70
2024/04/13 05:53:23;;;;;;;18.02;11.10;;;15.40;99.90;;;;;;5383085;26;20046;-69
2024/04/13 05:55:49;;;;;;;16.90;10.35;;;15.70;99.90;;;;;;5383130;26;20004;-69
2024/04/13 05:58:14;;;;;;;14.30;9.68;;;15.80;99.90;;;;;;5383075;26;20446;-69
2024/04/13 06:00:42;;;;;;;19.80;11.02;;;16.00;99.90;;;;;;5383126;26;20095;-70
2024/04/13 06:03:07;;;;;;;17.42;11.15;;;16.30;99.90;;;;;;5382979;26;19989;-69
2024/04/13 06:05:33;;;;;;;16.25;11.40;;;16.60;99.90;;;;;;5382939;26;20007;-69
2024/04/13 06:07:59;;;;;;;20.27;10.75;;;16.60;99.90;;;;;;5382997;26;19992;-69
2024/04/13 06:10:24;;;;;;;16.88;10.88;;;16.50;99.90;;;;;;5383011;26;20002;-69
2024/04/13 06:12:50;;;;;;;15.70;10.43;;;16.70;99.90;;;;;;5382809;26;19992;-69
2024/04/13 06:15:15;;;;;;;18.73;10.77;;;16.80;91.30;;;;;;5382773;26;19992;-69
2024/04/13 06:17:42;;;;;;;15.27;9.75;;;16.90;62.90;;;;;;5382473;26;20057;-69
2024/04/13 06:20:08;;;;;;;16.50;9.40;;;17.30;50.70;;;;;;5382619;26;20003;-70
2024/04/13 06:22:35;;;;;;;14.80;9.55;;;17.30;30.90;;;;;;5381762;26;19992;-69
2024/04/13 06:25:01;;;;;;;17.88;9.32;;;16.90;40.70;;;;;;5383067;26;20025;-69
2024/04/13 06:27:26;;;;;;;15.35;10.57;;;16.70;49.10;;;;;;5382919;26;19992;-70
2024/04/13 06:29:52;;;;;;;16.45;10.88;;;16.50;58.80;;;;;;5382686;26;20003;-69
2024/04/13 06:32:18;;;;;;;17.10;9.40;;;16.40;72.10;;;;;;5382714;26;20329;-69
2024/04/13 06:34:44;;;;;;;16.23;10.10;;;16.70;70.90;;;;;;5382671;26;20446;-69
2024/04/13 06:37:12;;;;;;;14.45;9.82;;;16.90;38.80;;;;;;5382680;26;20003;-69
2024/04/13 06:39:37;;;;;;;15.23;9.57;;;17.30;13.20;;;;;;5382692;26;19989;-69
2024/04/13 06:42:03;;;;;;;15.40;9.95;;;17.70;1.00;;;;;;5382922;26;20073;-69
2024/04/13 06:44:29;;;;;;;15.70;9.50;;;17.90;1.00;;;;;;5382732;26;19988;-69
2024/04/13 06:46:54;;;;;;;12.70;9.57;;;17.90;1.00;;;;;;5382313;26;20008;-69
2024/04/13 06:49:20;;;;;;;13.73;8.82;;;18.00;1.00;;;;;;5382320;26;20326;-69
2024/04/13 06:51:46;;;;;;;14.07;9.00;;;18.60;1.00;;;;;;5382419;26;19988;-69
2024/04/13 06:54:11;;;;;;;12.30;7.93;;;19.10;1.00;;;;;;5382357;26;20003;-69
2024/04/13 06:56:37;;;;;;;12.18;7.15;;;19.50;99.90;;;;;;5382574;26;20007;-69
2024/04/13 06:59:03;;;;;;;12.15;7.15;;;19.50;99.90;;;;;;5382608;26;20459;-69
2024/04/13 07:01:29;;;;;;;12.75;6.97;;;19.60;99.90;;;;;;5382085;26;19996;-69
2024/04/13 07:03:56;;;;;;;12.30;7.43;;;19.70;99.90;;;;;;5382067;26;19988;-69
2024/04/13 07:06:23;;;;;;;12.73;7.50;;;20.00;99.90;;;;;;5381909;26;19996;-69
2024/04/13 07:08:49;;;;;;;12.90;7.35;;;19.50;99.90;;;;;;5382048;26;20004;-69
2024/04/13 07:11:15;;;;;;;11.88;7.15;;;19.20;99.90;;;;;;5381833;26;20007;-69
2024/04/13 07:13:41;;;;;;;14.25;7.75;;;19.20;99.90;;;;;;5382084;26;19990;-69
2024/04/13 07:16:07;;;;;;;11.07;7.38;;;19.90;99.90;;;;;;5381477;26;19999;-69
2024/04/13 07:18:32;;;;;;;13.05;7.93;;;19.80;99.90;;;;;;5381843;26;20000;-69
2024/04/13 07:20:58;;;;;;;10.55;6.63;;;20.30;99.90;;;;;;5381969;26;20007;-70
2024/04/13 07:23:24;;;;;;;10.77;7.53;;;20.90;1.00;;;;;;5381770;26;19988;-69
2024/04/13 07:26:04;;;;;;;11.52;7.13;;;20.20;1.00;;;;;;5381890;26;20000;-69
2024/04/13 07:28:31;;;;;;;10.18;6.97;;;20.60;1.00;;;;;;5381770;26;20029;-69
2024/04/13 07:30:57;;;;;;;12.70;7.15;;;20.70;99.90;;;;;;5381691;26;20012;-69
2024/04/13 07:33:23;;;;;;;10.65;6.72;;;20.70;99.90;;;;;;5382865;26;19996;-69
2024/04/13 07:35:49;;;;;;;16.83;7.43;;;20.20;1.00;;;;;;5384941;26;19992;-69
2024/04/13 07:38:14;;;;;;;11.10;6.82;;;20.40;46.20;;;;;;5384885;26;20061;-69
2024/04/13 07:40:40;;;;;;;13.02;7.32;;;20.20;32.10;;;;;;5385384;26;20000;-69
2024/04/13 07:43:06;;;;;;;14.82;7.00;;;20.20;21.10;;;;;;5384888;26;20000;-69
2024/04/13 07:45:31;;;;;;;11.75;7.20;;;20.40;1.00;;;;;;5384923;26;20008;-69
2024/04/13 07:47:57;;;;;;;11.85;7.15;;;20.60;99.90;;;;;;5384903;26;20007;-69
2024/04/13 07:50:23;;;;;;;13.75;7.15;;;20.70;99.90;;;;;;5384975;26;19988;-69
2024/04/13 07:52:49;;;;;;;10.70;6.72;;;21.00;99.90;;;;;;5384916;26;19988;-69
2024/04/13 07:55:15;;;;;;;11.25;7.47;;;21.20;99.90;;;;;;5364164;26;20010;-69
2024/04/13 07:57:41;;;;;;;13.63;6.78;;;21.10;99.90;;;;;;5367604;26;20543;-70
2024/04/13 08:00:08;;;;;;;12.98;7.50;;;21.00;1.00;;;;;;5350497;26;20015;-69
2024/04/13 08:02:34;;;;;;;12.02;7.82;;;21.00;1.00;;;;;;5349638;26;19989;-69
2024/04/13 08:04:59;;;;;;;13.10;7.20;;;21.40;99.90;;;;;;5351547;26;20007;-69
2024/04/13 08:07:25;;;;;;;12.98;7.20;;;21.10;99.90;;;;;;5362857;26;20000;-69
2024/04/13 08:09:50;;;;;;;13.63;7.38;;;21.20;1.00;;;;;;5384622;26;19992;-69
2024/04/13 08:12:17;;;;;;;11.95;6.68;;;20.80;1.00;;;;;;5381273;26;19996;-69
2024/04/13 08:14:42;;;;;;;13.27;7.70;;;20.70;99.90;;;;;;5384761;26;20000;-70
2024/04/13 08:17:08;;;;;;;10.60;6.80;;;20.70;99.90;;;;;;5354322;26;20001;-68
2024/04/13 08:19:33;;;;;;;12.82;7.63;;;20.50;1.00;;;;;;5373067;26;20006;-69
2024/04/13 08:21:59;;;;;;;15.57;7.35;;;20.50;68.40;;;;;;5367619;26;20075;-69
2024/04/13 08:24:25;;;;;;;12.68;7.90;;;20.20;99.90;;;;;;5356269;26;20458;-69
2024/04/13 08:26:51;;;;;;;14.15;7.60;;;20.20;99.90;;;;;;5355942;26;19993;-69
2024/04/13 08:29:16;;;;;;;10.10;7.10;;;20.10;99.90;;;;;;5368757;26;19996;-69
2024/04/13 08:31:42;;;;;;;12.90;7.55;;;20.00;99.90;;;;;;5362260;26;20000;-69
2024/04/13 08:34:07;;;;;;;12.60;7.45;;;19.90;99.90;;;;;;5351511;26;20285;-69
2024/04/13 08:36:33;;;;;;;14.65;7.53;;;20.00;99.90;;;;;;5348924;26;20001;-69
2024/04/13 08:38:58;;;;;;;16.27;7.32;;;20.70;6.30;;;;;;5349128;26;20394;-69
2024/04/13 08:41:49;;;;;;;14.77;6.82;;;21.10;99.90;;;;;;5365778;26;20004;-70
2024/04/13 08:44:15;;;;;;;11.55;6.75;;;21.80;99.90;;;;;;5349401;26;20439;-70
2024/04/13 08:46:41;;;;;;;11.07;5.63;;;22.40;64.80;;;;;;5351427;26;20028;-70
2024/04/13 08:49:08;;;;;;;14.48;6.38;;;22.80;99.90;;;;;;5356602;26;20463;-70
2024/04/13 08:51:36;;;;;;;11.32;6.13;;;22.50;99.90;;;;;;5360938;26;20542;-70
2024/04/13 08:54:03;;;;;;;11.25;6.50;;;22.50;99.90;;;;;;5352226;26;20011;-69
2024/04/13 08:56:30;;;;;;;12.80;6.53;;;22.10;99.90;;;;;;5358556;26;20000;-70
2024/04/13 08:59:02;;;;;;;9.73;5.65;;;22.70;99.90;;;;;;5357830;26;20450;-70
2024/04/13 09:01:30;;;;;;;11.80;6.22;;;22.30;99.90;;;;;;5372915;26;19996;-70
2024/04/13 09:03:58;;;;;;;13.45;5.95;;;22.40;99.90;;;;;;5360870;26;20001;-70
2024/04/13 09:06:24;;;;;;;8.00;5.50;;;22.30;99.90;;;;;;5357734;26;20015;-69
2024/04/13 09:08:50;;;;;;;7.93;5.18;;;22.40;99.90;;;;;;5382975;26;19999;-69
2024/04/13 09:11:17;;;;;;;12.18;6.18;;;22.10;99.90;;;;;;5380472;26;20011;-69
2024/04/13 09:13:44;;;;;;;11.07;5.95;;;21.80;99.90;;;;;;5380987;26;20069;-69
2024/04/13 09:16:10;;;;;;;9.38;5.57;;;21.70;99.90;;;;;;5354987;26;20330;-69
2024/04/13 09:18:36;;;;;;;10.52;5.65;;;21.80;99.90;;;;;;5362697;26;19996;-69
2024/04/13 09:21:03;;;;;;;10.07;5.70;;;21.80;99.90;;;;;;5360217;26;20016;-69
2024/04/13 09:23:29;;;;;;;11.00;6.15;;;21.70;99.90;;;;;;5350986;26;20011;-68
2024/04/13 09:26:10;;;;;;;13.98;6.38;;;21.20;99.90;;;;;;5377709;26;20011;-68
2024/04/13 09:28:44;;;;;;;8.48;5.75;;;21.30;99.90;;;;;;5348402;26;20012;-69
2024/04/13 09:31:11;;;;;;;14.98;6.18;;;21.50;99.90;;;;;;5353946;26;20466;-68
2024/04/13 09:33:38;;;;;;;9.30;6.28;;;21.40;99.90;;;;;;5375334;26;20462;-69
2024/04/13 09:36:04;;;;;;;11.48;6.43;;;21.60;99.90;;;;;;5373902;26;20450;-68
2024/04/13 09:38:30;;;;;;;12.65;6.40;;;21.50;99.90;;;;;;5366693;26;20078;-69
2024/04/13 09:40:57;;;;;;;14.43;6.22;;;21.70;99.90;;;;;;5350097;26;20012;-69
2024/04/13 09:43:23;;;;;;;8.27;5.00;;;22.10;99.90;;;;;;5348800;26;20082;-69
2024/04/13 09:45:56;;;;;;;11.40;5.32;;;22.70;99.90;;;;;;5362917;26;20001;-69
2024/04/13 09:48:22;;;;;;;10.70;5.75;;;23.30;99.90;;;;;;5368022;26;20450;-69
2024/04/13 09:50:48;;;;;;;8.43;5.32;;;23.70;99.90;;;;;;5383760;26;19996;-68
2024/04/13 09:53:13;;;;;;;8.80;5.15;;;23.40;99.90;;;;;;5369605;26;20041;-68
2024/04/13 09:55:40;;;;;;;9.02;5.03;;;23.80;99.90;;;;;;5363469;26;20001;-69
2024/04/13 09:58:07;;;;;;;10.68;5.25;;;23.30;99.90;;;;;;5362171;26;20004;-69
2024/04/13 10:00:34;;;;;;;12.25;5.30;;;23.50;99.90;;;;;;5375075;26;20001;-68
2024/04/13 10:03:00;;;;;;;8.90;4.57;;;23.60;99.90;;;;;;5359130;26;20465;-68
2024/04/13 10:05:27;;;;;;;10.30;4.70;;;23.20;99.90;;;;;;5376211;26;20000;-68
2024/04/13 10:07:54;;;;;;;11.35;5.32;;;22.70;99.90;;;;;;5374031;26;20005;-68
2024/04/13 10:10:22;;;;;;;7.15;4.07;;;22.80;99.90;;;;;;5370897;26;20004;-68
2024/04/13 10:12:48;;;;;;;9.98;4.85;;;22.60;99.90;;;;;;5381243;26;20371;-68
2024/04/13 10:15:15;;;;;;;8.75;4.90;;;22.50;99.90;;;;;;5357095;26;20342;-68
2024/04/13 10:17:43;;;;;;;8.13;4.75;;;22.40;99.90;;;;;;5374424;26;20015;-69
2024/04/13 10:20:09;;;;;;;10.20;5.25;;;22.80;99.90;;;;;;5356406;26;20372;-68
2024/04/13 10:22:36;;;;;;;9.10;4.57;;;22.70;99.90;;;;;;5364650;26;20354;-68
2024/04/13 10:25:04;;;;;;;10.07;4.63;;;23.00;99.90;;;;;;5363961;26;20006;-68
2024/04/13 10:27:33;;;;;;;9.95;5.15;;;23.00;99.90;;;;;;5362562;26;20086;-69
2024/04/13 10:30:00;;;;;;;10.30;5.15;;;22.90;99.90;;;;;;5351959;26;20005;-69
2024/04/13 10:32:26;;;;;;;8.38;4.93;;;23.00;99.90;;;;;;5347875;26;20004;-69
2024/04/13 10:34:51;;;;;;;9.88;4.35;;;23.20;99.90;;;;;;5347574;26;20339;-69
2024/04/13 10:37:34;;;;;;;7.43;4.28;;;23.50;99.90;;;;;;5347574;26;20005;-68
2024/04/13 10:40:01;;;;;;;10.18;4.22;;;23.70;99.90;;;;;;5347164;26;20335;-68
2024/04/13 10:42:43;;;;;;;7.53;4.70;;;23.60;99.90;;;;;;5347553;26;20131;-69
2024/04/13 10:45:11;;;;;;;7.72;3.83;;;23.20;99.90;;;;;;5347720;26;19993;-69
2024/04/13 10:47:39;;;;;;;5.63;3.90;;;23.30;99.90;;;;;;5354572;26;20426;-69
2024/04/13 10:50:05;;;;;;;10.13;4.65;;;23.60;99.90;;;;;;5357182;26;20008;-69
2024/04/13 10:52:32;;;;;;;10.50;3.95;;;23.60;99.90;;;;;;5368429;26;20011;-69
2024/04/13 10:54:57;;;;;;;9.23;3.90;;;23.80;99.90;;;;;;5365972;26;20000;-69
2024/04/13 10:57:24;;;;;;;7.35;3.97;;;23.40;69.20;;;;;;5360146;26;20015;-69
2024/04/13 10:59:50;;;;;;;13.18;4.50;;;23.80;84.60;;;;;;5358742;26;20004;-70
2024/04/13 11:02:15;;;;;;;5.18;3.10;;;23.70;75.50;;;;;;5368828;26;20464;-69
2024/04/13 11:04:42;;;;;;;8.48;3.80;;;23.40;93.20;;;;;;5370901;26;20014;-69
2024/04/13 11:07:08;;;;;;;7.35;2.80;;;23.70;99.90;;;;;;5368398;26;19996;-69
2024/04/13 11:09:34;;;;;;;6.05;3.15;;;23.60;42.60;;;;;;5364685;26;20073;-68
2024/04/13 11:11:59;;;;;;;7.13;3.05;;;23.40;38.00;;;;;;5378344;26;20011;-69
2024/04/13 11:14:26;;;;;;;6.45;3.17;;;23.40;8.90;;;;;;5362238;26;20026;-69
2024/04/13 11:16:51;;;;;;;9.38;3.50;;;23.40;6.60;;;;;;5377045;26;20006;-69
2024/04/13 11:19:18;;;;;;;10.60;4.00;;;23.50;59.20;;;;;;5365894;26;20349;-69
2024/04/13 11:21:44;;;;;;;5.65;3.10;;;23.40;71.90;;;;;;5365284;26;20024;-69
2024/04/13 11:24:09;;;;;;;7.70;3.63;;;23.20;77.30;;;;;;5364262;26;20553;-68
2024/04/13 11:26:35;;;;;;;7.57;3.08;;;23.40;99.90;;;;;;5373872;26;20027;-68
2024/04/13 11:29:01;;;;;;;5.63;2.90;;;23.80;1.00;;;;;;5362042;26;20019;-70
2024/04/13 11:31:26;;;;;;;6.18;3.22;;;24.00;1.00;;;;;;5363718;26;20000;-69
2024/04/13 11:33:52;;;;;;;7.78;3.22;;;23.70;1.00;;;;;;5349691;26;20076;-69
2024/04/13 11:36:19;;;;;;;7.20;3.28;;;23.70;1.00;;;;;;5364437;26;20001;-69
2024/04/13 11:38:44;;;;;;;7.38;3.10;;;23.60;1.00;;;;;;5361897;26;20008;-69
2024/04/13 11:41:10;;;;;;;11.80;4.28;;;23.80;1.00;;;;;;5355108;26;20015;-69
2024/04/13 11:43:36;;;;;;;10.25;3.92;;;23.90;1.00;;;;;;5370099;26;20000;-70
2024/04/13 11:46:02;;;;;;;5.28;3.03;;;23.90;1.00;;;;;;5359601;26;20345;-69
2024/04/13 11:48:29;;;;;;;5.35;3.38;;;23.80;1.00;;;;;;5378703;26;20532;-69
2024/04/13 11:50:56;;;;;;;6.20;3.20;;;23.90;1.00;;;;;;5369059;26;20332;-69
2024/04/13 11:53:22;;;;;;;7.25;2.97;;;23.90;1.00;;;;;;5358303;26;20008;-70
2024/04/13 11:55:49;;;;;;;5.78;3.33;;;24.00;1.00;;;;;;5361273;26;20004;-70
2024/04/13 11:58:22;;;;;;;5.72;3.40;;;24.00;1.00;;;;;;5356660;26;20323;-69
2024/04/13 12:00:47;;;;;;;7.10;2.95;;;24.00;1.00;;;;;;5361234;26;19996;-68
2024/04/13 12:03:13;;;;;;;7.38;3.47;;;24.20;1.00;;;;;;5367178;26;20019;-69
2024/04/13 12:05:38;;;;;;;7.60;3.17;;;24.20;1.00;;;;;;5348180;26;20012;-68
2024/04/13 12:08:04;;;;;;;6.15;3.30;;;23.80;1.00;;;;;;5351453;26;20009;-70
2024/04/13 12:10:30;;;;;;;6.57;3.28;;;23.80;1.00;;;;;;5360165;26;20462;-69
2024/04/13 12:12:56;;;;;;;8.88;2.90;;;23.80;1.00;;;;;;5356658;26;20016;-69
2024/04/13 12:15:21;;;;;;;7.45;3.45;;;24.00;1.00;;;;;;5360122;26;20005;-69
2024/04/13 12:17:47;;;;;;;6.70;3.10;;;24.00;1.00;;;;;;5358393;26;20012;-69
2024/04/13 12:20:14;;;;;;;6.75;3.00;;;23.90;1.00;;;;;;5359573;26;20008;-70
2024/04/13 12:22:40;;;;;;;4.00;3.00;;;23.80;1.00;;;;;;5355107;26;20468;-70
2024/04/13 12:25:06;;;;;;;6.72;2.97;;;23.90;1.00;;;;;;5371833;26;20008;-70
2024/04/13 12:27:32;;;;;;;7.07;3.28;;;24.00;1.00;;;;;;5370152;26;20081;-69
2024/04/13 12:29:57;;;;;;;5.28;2.80;;;23.80;1.00;;;;;;5353457;26;20005;-70
2024/04/13 12:32:24;;;;;;;5.82;3.58;;;24.10;1.00;;;;;;5359390;26;20021;-70